sensor_id;sensor_type;location;lat;lon;timestamp;P1;durP1;ratioP1;P2;durP2;ratioP2
30420;SDS011;17218;54.070;10.012;2022-08-11T00:01:44;11.18;;;3.60;;
30420;SDS011;17218;54.070;10.012;2022-08-11T00:04:13;5.72;;;3.20;;
30420;SDS011;17218;54.070;10.012;2022-08-11T00:06:42;3.25;;;3.03;;
30420;SDS011;17218;54.070;10.012;2022-08-11T00:09:11;5.18;;;3.00;;
30420;SDS011;17218;54.070;10.012;2022-08-11T00:11:43;6.35;;;2.97;;
30420;SDS011;17218;54.070;10.012;2022-08-11T00:14:13;5.53;;;3.42;;
30420;SDS011;17218;54.070;10.012;2022-08-11T00:16:41;4.88;;;3.30;;
30420;SDS011;17218;54.070;10.012;2022-08-11T00:19:19;8.02;;;3.47;;
30420;SDS011;17218;54.070;10.012;2022-08-11T00:21:48;4.05;;;3.65;;
30420;SDS011;17218;54.070;10.012;2022-08-11T00:24:15;5.95;;;3.22;;
30420;SDS011;17218;54.070;10.012;2022-08-11T00:26:46;4.85;;;3.60;;
30420;SDS011;17218;54.070;10.012;2022-08-11T00:29:14;5.28;;;3.58;;
30420;SDS011;17218;54.070;10.012;2022-08-11T00:31:44;4.40;;;3.53;;
30420;SDS011;17218;54.070;10.012;2022-08-11T00:34:14;4.75;;;4.35;;
30420;SDS011;17218;54.070;10.012;2022-08-11T00:36:46;4.78;;;3.63;;
30420;SDS011;17218;54.070;10.012;2022-08-11T00:39:16;4.75;;;3.90;;
30420;SDS011;17218;54.070;10.012;2022-08-11T00:41:46;4.40;;;3.85;;
30420;SDS011;17218;54.070;10.012;2022-08-11T00:44:29;5.65;;;4.20;;
30420;SDS011;17218;54.070;10.012;2022-08-11T00:47:16;4.88;;;3.47;;
30420;SDS011;17218;54.070;10.012;2022-08-11T00:49:57;4.07;;;3.67;;
30420;SDS011;17218;54.070;10.012;2022-08-11T00:52:35;3.83;;;3.42;;
30420;SDS011;17218;54.070;10.012;2022-08-11T00:58:42;3.85;;;3.45;;
30420;SDS011;17218;54.070;10.012;2022-08-11T01:01:33;4.05;;;3.58;;
30420;SDS011;17218;54.070;10.012;2022-08-11T01:04:22;5.65;;;3.58;;
30420;SDS011;17218;54.070;10.012;2022-08-11T01:07:17;3.55;;;3.25;;
30420;SDS011;17218;54.070;10.012;2022-08-11T01:10:01;4.60;;;3.25;;
30420;SDS011;17218;54.070;10.012;2022-08-11T01:12:43;4.60;;;3.60;;
30420;SDS011;17218;54.070;10.012;2022-08-11T01:15:38;4.07;;;3.78;;
30420;SDS011;17218;54.070;10.012;2022-08-11T01:18:40;5.00;;;3.83;;
30420;SDS011;17218;54.070;10.012;2022-08-11T01:21:44;4.88;;;4.35;;
30420;SDS011;17218;54.070;10.012;2022-08-11T01:34:17;5.25;;;4.10;;
30420;SDS011;17218;54.070;10.012;2022-08-11T01:37:26;4.75;;;3.75;;
30420;SDS011;17218;54.070;10.012;2022-08-11T01:40:12;4.95;;;3.42;;
30420;SDS011;17218;54.070;10.012;2022-08-11T01:42:56;3.63;;;3.33;;
30420;SDS011;17218;54.070;10.012;2022-08-11T01:45:58;5.28;;;4.25;;
30420;SDS011;17218;54.070;10.012;2022-08-11T01:48:33;3.50;;;3.20;;
30420;SDS011;17218;54.070;10.012;2022-08-11T01:51:12;4.32;;;3.15;;
30420;SDS011;17218;54.070;10.012;2022-08-11T01:53:52;4.05;;;3.28;;
30420;SDS011;17218;54.070;10.012;2022-08-11T01:56:30;5.45;;;3.17;;
30420;SDS011;17218;54.070;10.012;2022-08-11T01:59:06;7.57;;;3.63;;
30420;SDS011;17218;54.070;10.012;2022-08-11T02:04:35;8.13;;;5.55;;
30420;SDS011;17218;54.070;10.012;2022-08-11T02:07:09;6.47;;;5.10;;
30420;SDS011;17218;54.070;10.012;2022-08-11T02:09:57;6.22;;;4.78;;
30420;SDS011;17218;54.070;10.012;2022-08-11T02:12:50;4.55;;;3.90;;
30420;SDS011;17218;54.070;10.012;2022-08-11T02:15:22;3.75;;;3.30;;
30420;SDS011;17218;54.070;10.012;2022-08-11T02:17:59;5.40;;;3.22;;
30420;SDS011;17218;54.070;10.012;2022-08-11T02:20:41;3.55;;;3.25;;
30420;SDS011;17218;54.070;10.012;2022-08-11T02:23:30;4.60;;;3.20;;
30420;SDS011;17218;54.070;10.012;2022-08-11T02:26:08;5.35;;;4.25;;
30420;SDS011;17218;54.070;10.012;2022-08-11T02:28:41;4.15;;;3.40;;
30420;SDS011;17218;54.070;10.012;2022-08-11T02:31:16;5.60;;;3.83;;
30420;SDS011;17218;54.070;10.012;2022-08-11T02:34:09;4.32;;;3.70;;
30420;SDS011;17218;54.070;10.012;2022-08-11T02:36:46;4.68;;;3.35;;
30420;SDS011;17218;54.070;10.012;2022-08-11T02:39:20;4.40;;;3.55;;
30420;SDS011;17218;54.070;10.012;2022-08-11T02:41:56;4.28;;;3.40;;
30420;SDS011;17218;54.070;10.012;2022-08-11T02:44:48;4.20;;;3.35;;
30420;SDS011;17218;54.070;10.012;2022-08-11T02:47:30;4.55;;;3.63;;
30420;SDS011;17218;54.070;10.012;2022-08-11T02:50:36;4.30;;;3.45;;
30420;SDS011;17218;54.070;10.012;2022-08-11T02:53:08;4.05;;;3.65;;
30420;SDS011;17218;54.070;10.012;2022-08-11T02:55:46;3.65;;;3.28;;
30420;SDS011;17218;54.070;10.012;2022-08-11T02:58:25;5.07;;;3.35;;
30420;SDS011;17218;54.070;10.012;2022-08-11T03:01:02;3.75;;;3.38;;
30420;SDS011;17218;54.070;10.012;2022-08-11T03:03:35;4.85;;;3.55;;
30420;SDS011;17218;54.070;10.012;2022-08-11T03:06:11;4.20;;;3.80;;
30420;SDS011;17218;54.070;10.012;2022-08-11T03:08:51;4.22;;;3.20;;
30420;SDS011;17218;54.070;10.012;2022-08-11T03:11:30;4.05;;;3.65;;
30420;SDS011;17218;54.070;10.012;2022-08-11T03:14:28;5.90;;;3.70;;
30420;SDS011;17218;54.070;10.012;2022-08-11T03:17:20;3.85;;;3.28;;
30420;SDS011;17218;54.070;10.012;2022-08-11T03:19:59;4.97;;;3.53;;
30420;SDS011;17218;54.070;10.012;2022-08-11T03:22:58;3.78;;;3.47;;
30420;SDS011;17218;54.070;10.012;2022-08-11T03:25:31;4.05;;;3.67;;
30420;SDS011;17218;54.070;10.012;2022-08-11T03:28:13;4.70;;;4.07;;
30420;SDS011;17218;54.070;10.012;2022-08-11T03:30:56;6.53;;;4.40;;
30420;SDS011;17218;54.070;10.012;2022-08-11T03:33:32;5.32;;;4.22;;
30420;SDS011;17218;54.070;10.012;2022-08-11T03:36:25;6.10;;;3.60;;
30420;SDS011;17218;54.070;10.012;2022-08-11T03:39:19;6.25;;;4.15;;
30420;SDS011;17218;54.070;10.012;2022-08-11T03:41:52;7.40;;;3.70;;
30420;SDS011;17218;54.070;10.012;2022-08-11T03:44:33;4.97;;;3.63;;
30420;SDS011;17218;54.070;10.012;2022-08-11T03:47:26;6.90;;;3.70;;
30420;SDS011;17218;54.070;10.012;2022-08-11T03:50:15;4.18;;;3.67;;
30420;SDS011;17218;54.070;10.012;2022-08-11T03:53:05;6.60;;;3.85;;
30420;SDS011;17218;54.070;10.012;2022-08-11T03:55:50;4.43;;;3.97;;
30420;SDS011;17218;54.070;10.012;2022-08-11T03:58:51;3.75;;;3.20;;
30420;SDS011;17218;54.070;10.012;2022-08-11T04:02:14;4.25;;;3.45;;
30420;SDS011;17218;54.070;10.012;2022-08-11T04:05:19;4.63;;;3.70;;
30420;SDS011;17218;54.070;10.012;2022-08-11T04:11:16;3.92;;;3.63;;
30420;SDS011;17218;54.070;10.012;2022-08-11T04:20:54;4.85;;;3.53;;
30420;SDS011;17218;54.070;10.012;2022-08-11T04:23:45;4.68;;;4.18;;
30420;SDS011;17218;54.070;10.012;2022-08-11T04:29:34;4.68;;;3.60;;
30420;SDS011;17218;54.070;10.012;2022-08-11T04:32:30;3.55;;;3.25;;
30420;SDS011;17218;54.070;10.012;2022-08-11T04:35:25;5.45;;;3.90;;
30420;SDS011;17218;54.070;10.012;2022-08-11T04:38:15;7.40;;;3.45;;
30420;SDS011;17218;54.070;10.012;2022-08-11T04:41:17;4.40;;;3.97;;
30420;SDS011;17218;54.070;10.012;2022-08-11T04:44:06;5.70;;;3.90;;
30420;SDS011;17218;54.070;10.012;2022-08-11T04:50:07;4.25;;;3.85;;
30420;SDS011;17218;54.070;10.012;2022-08-11T04:53:09;4.15;;;3.65;;
30420;SDS011;17218;54.070;10.012;2022-08-11T04:56:07;5.18;;;3.75;;
30420;SDS011;17218;54.070;10.012;2022-08-11T05:05:34;5.63;;;4.53;;
30420;SDS011;17218;54.070;10.012;2022-08-11T05:14:34;5.15;;;4.65;;
30420;SDS011;17218;54.070;10.012;2022-08-11T05:17:33;4.97;;;4.13;;
30420;SDS011;17218;54.070;10.012;2022-08-11T05:20:21;4.82;;;4.28;;
30420;SDS011;17218;54.070;10.012;2022-08-11T05:23:08;4.72;;;4.13;;
30420;SDS011;17218;54.070;10.012;2022-08-11T05:25:54;4.60;;;3.95;;
30420;SDS011;17218;54.070;10.012;2022-08-11T05:28:45;4.43;;;3.70;;
30420;SDS011;17218;54.070;10.012;2022-08-11T05:31:35;4.68;;;3.40;;
30420;SDS011;17218;54.070;10.012;2022-08-11T05:34:22;4.13;;;3.13;;
30420;SDS011;17218;54.070;10.012;2022-08-11T05:37:10;5.68;;;3.65;;
30420;SDS011;17218;54.070;10.012;2022-08-11T05:39:43;3.60;;;3.30;;
30420;SDS011;17218;54.070;10.012;2022-08-11T05:42:29;4.53;;;4.13;;
30420;SDS011;17218;54.070;10.012;2022-08-11T05:45:16;3.88;;;3.58;;
30420;SDS011;17218;54.070;10.012;2022-08-11T05:48:02;4.50;;;3.42;;
30420;SDS011;17218;54.070;10.012;2022-08-11T05:50:51;3.70;;;3.35;;
30420;SDS011;17218;54.070;10.012;2022-08-11T05:53:46;3.78;;;3.25;;
30420;SDS011;17218;54.070;10.012;2022-08-11T05:56:33;4.45;;;3.28;;
30420;SDS011;17218;54.070;10.012;2022-08-11T05:59:11;7.53;;;3.58;;
30420;SDS011;17218;54.070;10.012;2022-08-11T06:01:43;4.07;;;3.30;;
30420;SDS011;17218;54.070;10.012;2022-08-11T06:04:14;5.90;;;3.13;;
30420;SDS011;17218;54.070;10.012;2022-08-11T06:09:30;2.85;;;2.65;;
30420;SDS011;17218;54.070;10.012;2022-08-11T06:11:59;7.65;;;3.67;;
30420;SDS011;17218;54.070;10.012;2022-08-11T06:14:29;8.18;;;4.05;;
30420;SDS011;17218;54.070;10.012;2022-08-11T06:16:59;3.63;;;3.28;;
30420;SDS011;17218;54.070;10.012;2022-08-11T06:19:33;7.75;;;3.03;;
30420;SDS011;17218;54.070;10.012;2022-08-11T06:22:02;4.95;;;3.03;;
30420;SDS011;17218;54.070;10.012;2022-08-11T06:24:30;3.22;;;2.92;;
30420;SDS011;17218;54.070;10.012;2022-08-11T06:26:58;4.50;;;3.20;;
30420;SDS011;17218;54.070;10.012;2022-08-11T06:29:25;3.72;;;2.80;;
30420;SDS011;17218;54.070;10.012;2022-08-11T06:31:54;4.05;;;3.40;;
30420;SDS011;17218;54.070;10.012;2022-08-11T06:34:36;7.22;;;3.17;;
30420;SDS011;17218;54.070;10.012;2022-08-11T06:37:16;4.97;;;3.25;;
30420;SDS011;17218;54.070;10.012;2022-08-11T06:39:51;3.42;;;2.97;;
30420;SDS011;17218;54.070;10.012;2022-08-11T06:42:33;5.47;;;2.80;;
30420;SDS011;17218;54.070;10.012;2022-08-11T06:45:13;4.90;;;3.08;;
30420;SDS011;17218;54.070;10.012;2022-08-11T06:47:49;4.55;;;3.55;;
30420;SDS011;17218;54.070;10.012;2022-08-11T06:50:19;4.53;;;2.90;;
30420;SDS011;17218;54.070;10.012;2022-08-11T06:53:06;6.72;;;2.88;;
30420;SDS011;17218;54.070;10.012;2022-08-11T06:55:37;4.43;;;2.88;;
30420;SDS011;17218;54.070;10.012;2022-08-11T06:58:25;4.47;;;2.60;;
30420;SDS011;17218;54.070;10.012;2022-08-11T07:01:13;3.25;;;2.75;;
30420;SDS011;17218;54.070;10.012;2022-08-11T07:03:44;4.03;;;2.67;;
30420;SDS011;17218;54.070;10.012;2022-08-11T07:06:30;3.65;;;2.88;;
30420;SDS011;17218;54.070;10.012;2022-08-11T07:09:10;6.93;;;2.88;;
30420;SDS011;17218;54.070;10.012;2022-08-11T07:12:20;2.50;;;2.20;;
30420;SDS011;17218;54.070;10.012;2022-08-11T07:15:20;2.38;;;2.17;;
30420;SDS011;17218;54.070;10.012;2022-08-11T07:18:15;3.42;;;2.30;;
30420;SDS011;17218;54.070;10.012;2022-08-11T07:21:11;2.95;;;2.28;;
30420;SDS011;17218;54.070;10.012;2022-08-11T07:24:00;2.72;;;2.35;;
30420;SDS011;17218;54.070;10.012;2022-08-11T07:26:50;3.08;;;2.20;;
30420;SDS011;17218;54.070;10.012;2022-08-11T07:29:37;4.03;;;1.92;;
30420;SDS011;17218;54.070;10.012;2022-08-11T07:32:18;3.85;;;2.30;;
30420;SDS011;17218;54.070;10.012;2022-08-11T07:34:50;3.10;;;1.95;;
30420;SDS011;17218;54.070;10.012;2022-08-11T07:37:22;3.17;;;2.10;;
30420;SDS011;17218;54.070;10.012;2022-08-11T07:39:52;5.10;;;2.08;;
30420;SDS011;17218;54.070;10.012;2022-08-11T07:42:20;5.40;;;2.00;;
30420;SDS011;17218;54.070;10.012;2022-08-11T07:44:48;4.95;;;2.33;;
30420;SDS011;17218;54.070;10.012;2022-08-11T07:47:35;4.45;;;1.80;;
30420;SDS011;17218;54.070;10.012;2022-08-11T07:50:22;2.45;;;1.90;;
30420;SDS011;17218;54.070;10.012;2022-08-11T07:53:06;4.22;;;2.17;;
30420;SDS011;17218;54.070;10.012;2022-08-11T07:55:35;2.67;;;2.10;;
30420;SDS011;17218;54.070;10.012;2022-08-11T07:58:02;4.53;;;2.20;;
30420;SDS011;17218;54.070;10.012;2022-08-11T08:00:48;2.33;;;1.77;;
30420;SDS011;17218;54.070;10.012;2022-08-11T08:03:35;2.17;;;1.98;;
30420;SDS011;17218;54.070;10.012;2022-08-11T08:06:20;3.35;;;2.00;;
30420;SDS011;17218;54.070;10.012;2022-08-11T08:09:08;5.15;;;1.90;;
30420;SDS011;17218;54.070;10.012;2022-08-11T08:11:54;6.03;;;2.45;;
30420;SDS011;17218;54.070;10.012;2022-08-11T08:14:39;2.65;;;2.10;;
30420;SDS011;17218;54.070;10.012;2022-08-11T08:17:24;3.28;;;2.10;;
30420;SDS011;17218;54.070;10.012;2022-08-11T08:20:10;5.35;;;2.20;;
30420;SDS011;17218;54.070;10.012;2022-08-11T08:22:38;4.68;;;2.22;;
30420;SDS011;17218;54.070;10.012;2022-08-11T08:25:06;3.63;;;2.00;;
30420;SDS011;17218;54.070;10.012;2022-08-11T08:27:35;4.70;;;1.98;;
30420;SDS011;17218;54.070;10.012;2022-08-11T08:30:03;2.90;;;1.80;;
30420;SDS011;17218;54.070;10.012;2022-08-11T08:32:49;3.05;;;1.90;;
30420;SDS011;17218;54.070;10.012;2022-08-11T08:35:17;2.40;;;2.10;;
30420;SDS011;17218;54.070;10.012;2022-08-11T08:37:45;3.17;;;1.98;;
30420;SDS011;17218;54.070;10.012;2022-08-11T08:40:15;4.70;;;2.13;;
30420;SDS011;17218;54.070;10.012;2022-08-11T08:42:46;5.03;;;2.28;;
30420;SDS011;17218;54.070;10.012;2022-08-11T08:45:19;2.55;;;1.90;;
30420;SDS011;17218;54.070;10.012;2022-08-11T08:47:49;2.13;;;1.88;;
30420;SDS011;17218;54.070;10.012;2022-08-11T08:50:20;1.83;;;1.65;;
30420;SDS011;17218;54.070;10.012;2022-08-11T08:53:08;9.75;;;2.00;;
30420;SDS011;17218;54.070;10.012;2022-08-11T08:55:38;2.10;;;1.90;;
30420;SDS011;17218;54.070;10.012;2022-08-11T08:58:08;2.10;;;1.90;;
30420;SDS011;17218;54.070;10.012;2022-08-11T09:00:39;3.95;;;1.95;;
30420;SDS011;17218;54.070;10.012;2022-08-11T09:03:09;1.98;;;1.75;;
30420;SDS011;17218;54.070;10.012;2022-08-11T09:05:37;3.22;;;1.70;;
30420;SDS011;17218;54.070;10.012;2022-08-11T09:08:04;4.15;;;1.67;;
30420;SDS011;17218;54.070;10.012;2022-08-11T09:10:32;2.60;;;2.15;;
30420;SDS011;17218;54.070;10.012;2022-08-11T09:12:59;4.32;;;2.13;;
30420;SDS011;17218;54.070;10.012;2022-08-11T09:15:30;6.55;;;1.67;;
30420;SDS011;17218;54.070;10.012;2022-08-11T09:17:58;2.53;;;1.50;;
30420;SDS011;17218;54.070;10.012;2022-08-11T09:20:30;4.10;;;1.83;;
30420;SDS011;17218;54.070;10.012;2022-08-11T09:23:00;4.65;;;1.95;;
30420;SDS011;17218;54.070;10.012;2022-08-11T09:25:46;2.97;;;1.67;;
30420;SDS011;17218;54.070;10.012;2022-08-11T09:28:32;2.15;;;1.70;;
30420;SDS011;17218;54.070;10.012;2022-08-11T09:31:02;2.50;;;1.60;;
30420;SDS011;17218;54.070;10.012;2022-08-11T09:33:31;2.55;;;1.50;;
30420;SDS011;17218;54.070;10.012;2022-08-11T09:36:00;5.28;;;1.73;;
30420;SDS011;17218;54.070;10.012;2022-08-11T09:38:49;4.93;;;1.83;;
30420;SDS011;17218;54.070;10.012;2022-08-11T09:41:34;1.83;;;1.70;;
30420;SDS011;17218;54.070;10.012;2022-08-11T09:44:01;1.80;;;1.55;;
30420;SDS011;17218;54.070;10.012;2022-08-11T09:46:48;2.75;;;1.30;;
30420;SDS011;17218;54.070;10.012;2022-08-11T09:49:17;2.35;;;1.67;;
30420;SDS011;17218;54.070;10.012;2022-08-11T09:51:45;2.00;;;1.42;;
30420;SDS011;17218;54.070;10.012;2022-08-11T09:54:12;2.67;;;1.30;;
30420;SDS011;17218;54.070;10.012;2022-08-11T09:56:41;2.20;;;1.50;;
30420;SDS011;17218;54.070;10.012;2022-08-11T09:59:25;2.75;;;1.40;;
30420;SDS011;17218;54.070;10.012;2022-08-11T10:01:56;3.30;;;1.58;;
30420;SDS011;17218;54.070;10.012;2022-08-11T10:04:27;2.28;;;1.60;;
30420;SDS011;17218;54.070;10.012;2022-08-11T10:06:59;2.53;;;1.50;;
30420;SDS011;17218;54.070;10.012;2022-08-11T10:09:27;2.58;;;1.40;;
30420;SDS011;17218;54.070;10.012;2022-08-11T10:12:05;1.40;;;1.27;;
30420;SDS011;17218;54.070;10.012;2022-08-11T10:14:36;2.30;;;1.42;;
30420;SDS011;17218;54.070;10.012;2022-08-11T10:17:29;3.45;;;1.20;;
30420;SDS011;17218;54.070;10.012;2022-08-11T10:19:58;2.72;;;1.23;;
30420;SDS011;17218;54.070;10.012;2022-08-11T10:22:32;2.55;;;1.50;;
30420;SDS011;17218;54.070;10.012;2022-08-11T10:25:17;1.65;;;1.40;;
30420;SDS011;17218;54.070;10.012;2022-08-11T10:28:03;3.05;;;1.40;;
30420;SDS011;17218;54.070;10.012;2022-08-11T10:30:33;2.95;;;1.42;;
30420;SDS011;17218;54.070;10.012;2022-08-11T10:33:27;3.63;;;1.30;;
30420;SDS011;17218;54.070;10.012;2022-08-11T10:36:12;2.45;;;1.40;;
30420;SDS011;17218;54.070;10.012;2022-08-11T10:38:38;2.55;;;1.40;;
30420;SDS011;17218;54.070;10.012;2022-08-11T10:41:05;2.63;;;1.40;;
30420;SDS011;17218;54.070;10.012;2022-08-11T10:44:04;2.10;;;1.38;;
30420;SDS011;17218;54.070;10.012;2022-08-11T10:46:33;1.52;;;1.38;;
30420;SDS011;17218;54.070;10.012;2022-08-11T10:49:19;2.63;;;1.30;;
30420;SDS011;17218;54.070;10.012;2022-08-11T10:51:46;4.78;;;1.55;;
30420;SDS011;17218;54.070;10.012;2022-08-11T10:54:31;3.33;;;1.48;;
30420;SDS011;17218;54.070;10.012;2022-08-11T10:57:16;1.80;;;1.60;;
30420;SDS011;17218;54.070;10.012;2022-08-11T11:00:00;2.67;;;1.33;;
30420;SDS011;17218;54.070;10.012;2022-08-11T11:02:30;1.58;;;1.25;;
30420;SDS011;17218;54.070;10.012;2022-08-11T11:05:00;2.72;;;1.30;;
30420;SDS011;17218;54.070;10.012;2022-08-11T11:07:35;1.77;;;1.27;;
30420;SDS011;17218;54.070;10.012;2022-08-11T11:10:05;2.53;;;1.63;;
30420;SDS011;17218;54.070;10.012;2022-08-11T11:12:34;3.13;;;1.35;;
30420;SDS011;17218;54.070;10.012;2022-08-11T11:15:22;1.58;;;1.25;;
30420;SDS011;17218;54.070;10.012;2022-08-11T11:18:10;5.28;;;1.23;;
30420;SDS011;17218;54.070;10.012;2022-08-11T11:20:42;1.85;;;1.23;;
30420;SDS011;17218;54.070;10.012;2022-08-11T11:23:13;3.33;;;1.27;;
30420;SDS011;17218;54.070;10.012;2022-08-11T11:28:46;2.13;;;1.30;;
30420;SDS011;17218;54.070;10.012;2022-08-11T11:31:33;2.97;;;1.30;;
30420;SDS011;17218;54.070;10.012;2022-08-11T11:34:16;1.88;;;1.45;;
30420;SDS011;17218;54.070;10.012;2022-08-11T11:36:56;1.50;;;1.40;;
30420;SDS011;17218;54.070;10.012;2022-08-11T11:39:26;2.22;;;1.13;;
30420;SDS011;17218;54.070;10.012;2022-08-11T11:41:57;2.72;;;1.58;;
30420;SDS011;17218;54.070;10.012;2022-08-11T11:44:25;2.00;;;1.80;;
30420;SDS011;17218;54.070;10.012;2022-08-11T11:46:53;3.15;;;1.60;;
30420;SDS011;17218;54.070;10.012;2022-08-11T11:49:21;3.00;;;1.35;;
30420;SDS011;17218;54.070;10.012;2022-08-11T11:51:50;2.42;;;1.40;;
30420;SDS011;17218;54.070;10.012;2022-08-11T11:54:20;2.65;;;1.33;;
30420;SDS011;17218;54.070;10.012;2022-08-11T11:56:50;3.85;;;1.30;;
30420;SDS011;17218;54.070;10.012;2022-08-11T11:59:18;2.08;;;1.45;;
30420;SDS011;17218;54.070;10.012;2022-08-11T12:02:04;3.33;;;1.30;;
30420;SDS011;17218;54.070;10.012;2022-08-11T12:04:31;2.25;;;1.52;;
30420;SDS011;17218;54.070;10.012;2022-08-11T12:07:00;1.52;;;1.17;;
30420;SDS011;17218;54.070;10.012;2022-08-11T12:09:42;1.95;;;1.50;;
30420;SDS011;17218;54.070;10.012;2022-08-11T12:12:11;3.85;;;1.25;;
30420;SDS011;17218;54.070;10.012;2022-08-11T12:14:56;3.88;;;1.10;;
30420;SDS011;17218;54.070;10.012;2022-08-11T12:17:23;3.47;;;1.50;;
30420;SDS011;17218;54.070;10.012;2022-08-11T12:19:50;3.40;;;1.80;;
30420;SDS011;17218;54.070;10.012;2022-08-11T12:22:18;2.03;;;1.10;;
30420;SDS011;17218;54.070;10.012;2022-08-11T12:25:04;2.85;;;1.13;;
30420;SDS011;17218;54.070;10.012;2022-08-11T12:27:51;3.47;;;1.30;;
30420;SDS011;17218;54.070;10.012;2022-08-11T12:30:18;2.72;;;1.10;;
30420;SDS011;17218;54.070;10.012;2022-08-11T12:32:46;1.50;;;1.40;;
30420;SDS011;17218;54.070;10.012;2022-08-11T12:35:13;2.83;;;1.20;;
30420;SDS011;17218;54.070;10.012;2022-08-11T12:37:44;2.10;;;1.15;;
30420;SDS011;17218;54.070;10.012;2022-08-11T12:40:15;4.75;;;1.42;;
30420;SDS011;17218;54.070;10.012;2022-08-11T12:43:03;3.30;;;1.42;;
30420;SDS011;17218;54.070;10.012;2022-08-11T12:45:52;2.47;;;1.33;;
30420;SDS011;17218;54.070;10.012;2022-08-11T12:48:22;1.42;;;1.10;;
30420;SDS011;17218;54.070;10.012;2022-08-11T12:51:10;3.58;;;1.58;;
30420;SDS011;17218;54.070;10.012;2022-08-11T12:53:59;3.65;;;1.50;;
30420;SDS011;17218;54.070;10.012;2022-08-11T12:56:43;2.53;;;1.25;;
30420;SDS011;17218;54.070;10.012;2022-08-11T12:59:28;2.50;;;1.50;;
30420;SDS011;17218;54.070;10.012;2022-08-11T13:02:14;1.75;;;1.40;;
30420;SDS011;17218;54.070;10.012;2022-08-11T13:05:00;2.22;;;1.27;;
30420;SDS011;17218;54.070;10.012;2022-08-11T13:07:27;1.70;;;1.48;;
30420;SDS011;17218;54.070;10.012;2022-08-11T13:09:56;2.47;;;1.10;;
30420;SDS011;17218;54.070;10.012;2022-08-11T13:12:25;2.67;;;1.58;;
30420;SDS011;17218;54.070;10.012;2022-08-11T13:15:13;3.25;;;1.08;;
30420;SDS011;17218;54.070;10.012;2022-08-11T13:17:40;1.33;;;1.23;;
30420;SDS011;17218;54.070;10.012;2022-08-11T13:20:09;2.08;;;1.30;;
30420;SDS011;17218;54.070;10.012;2022-08-11T13:22:38;1.63;;;1.20;;
30420;SDS011;17218;54.070;10.012;2022-08-11T13:25:09;1.42;;;1.10;;
30420;SDS011;17218;54.070;10.012;2022-08-11T13:27:39;2.55;;;1.30;;
30420;SDS011;17218;54.070;10.012;2022-08-11T13:30:06;4.38;;;1.40;;
30420;SDS011;17218;54.070;10.012;2022-08-11T13:32:51;2.97;;;1.52;;
30420;SDS011;17218;54.070;10.012;2022-08-11T13:35:18;2.90;;;1.38;;
30420;SDS011;17218;54.070;10.012;2022-08-11T13:37:47;4.93;;;1.30;;
30420;SDS011;17218;54.070;10.012;2022-08-11T13:40:17;1.95;;;1.30;;
30420;SDS011;17218;54.070;10.012;2022-08-11T13:42:47;3.67;;;1.30;;
30420;SDS011;17218;54.070;10.012;2022-08-11T13:45:31;3.35;;;1.30;;
30420;SDS011;17218;54.070;10.012;2022-08-11T13:48:00;2.97;;;1.27;;
30420;SDS011;17218;54.070;10.012;2022-08-11T13:50:32;3.10;;;1.23;;
30420;SDS011;17218;54.070;10.012;2022-08-11T13:53:14;3.50;;;1.17;;
30420;SDS011;17218;54.070;10.012;2022-08-11T13:55:44;1.38;;;1.10;;
30420;SDS011;17218;54.070;10.012;2022-08-11T13:58:13;3.67;;;1.15;;
30420;SDS011;17218;54.070;10.012;2022-08-11T14:00:40;2.30;;;1.40;;
30420;SDS011;17218;54.070;10.012;2022-08-11T14:03:11;1.55;;;1.40;;
30420;SDS011;17218;54.070;10.012;2022-08-11T14:05:39;2.80;;;1.65;;
30420;SDS011;17218;54.070;10.012;2022-08-11T14:08:09;3.58;;;1.13;;
30420;SDS011;17218;54.070;10.012;2022-08-11T14:10:38;3.03;;;1.27;;
30420;SDS011;17218;54.070;10.012;2022-08-11T14:13:06;7.80;;;1.30;;
30420;SDS011;17218;54.070;10.012;2022-08-11T14:15:54;2.10;;;1.70;;
30420;SDS011;17218;54.070;10.012;2022-08-11T14:18:27;1.67;;;1.00;;
30420;SDS011;17218;54.070;10.012;2022-08-11T14:20:56;2.03;;;1.40;;
30420;SDS011;17218;54.070;10.012;2022-08-11T14:23:44;2.08;;;1.10;;
30420;SDS011;17218;54.070;10.012;2022-08-11T14:26:13;2.53;;;1.02;;
30420;SDS011;17218;54.070;10.012;2022-08-11T14:28:52;3.75;;;1.42;;
30420;SDS011;17218;54.070;10.012;2022-08-11T14:31:22;1.30;;;1.17;;
30420;SDS011;17218;54.070;10.012;2022-08-11T14:33:51;1.98;;;1.20;;
30420;SDS011;17218;54.070;10.012;2022-08-11T14:36:19;4.72;;;1.00;;
30420;SDS011;17218;54.070;10.012;2022-08-11T14:38:47;3.97;;;1.15;;
30420;SDS011;17218;54.070;10.012;2022-08-11T14:41:17;3.22;;;1.10;;
30420;SDS011;17218;54.070;10.012;2022-08-11T14:44:02;3.40;;;1.25;;
30420;SDS011;17218;54.070;10.012;2022-08-11T14:46:50;3.60;;;1.30;;
30420;SDS011;17218;54.070;10.012;2022-08-11T14:49:33;4.25;;;1.70;;
30420;SDS011;17218;54.070;10.012;2022-08-11T14:52:02;2.60;;;1.13;;
30420;SDS011;17218;54.070;10.012;2022-08-11T14:54:31;2.50;;;1.17;;
30420;SDS011;17218;54.070;10.012;2022-08-11T14:57:16;3.00;;;1.08;;
30420;SDS011;17218;54.070;10.012;2022-08-11T14:59:45;4.00;;;1.20;;
30420;SDS011;17218;54.070;10.012;2022-08-11T15:02:15;3.83;;;1.20;;
30420;SDS011;17218;54.070;10.012;2022-08-11T15:05:02;2.72;;;1.35;;
30420;SDS011;17218;54.070;10.012;2022-08-11T15:07:31;1.45;;;1.20;;
30420;SDS011;17218;54.070;10.012;2022-08-11T15:10:00;3.83;;;1.27;;
30420;SDS011;17218;54.070;10.012;2022-08-11T15:12:28;1.60;;;1.20;;
30420;SDS011;17218;54.070;10.012;2022-08-11T15:14:56;1.20;;;1.10;;
30420;SDS011;17218;54.070;10.012;2022-08-11T15:17:42;2.75;;;1.10;;
30420;SDS011;17218;54.070;10.012;2022-08-11T15:20:12;1.95;;;1.10;;
30420;SDS011;17218;54.070;10.012;2022-08-11T15:22:59;1.33;;;1.15;;
30420;SDS011;17218;54.070;10.012;2022-08-11T15:25:45;2.92;;;1.05;;
30420;SDS011;17218;54.070;10.012;2022-08-11T15:28:15;2.25;;;1.13;;
30420;SDS011;17218;54.070;10.012;2022-08-11T15:31:02;3.25;;;0.90;;
30420;SDS011;17218;54.070;10.012;2022-08-11T15:34:03;1.45;;;1.10;;
30420;SDS011;17218;54.070;10.012;2022-08-11T15:36:49;3.70;;;1.27;;
30420;SDS011;17218;54.070;10.012;2022-08-11T15:39:41;5.22;;;1.10;;
30420;SDS011;17218;54.070;10.012;2022-08-11T15:42:26;2.05;;;1.02;;
30420;SDS011;17218;54.070;10.012;2022-08-11T15:45:13;1.55;;;1.45;;
30420;SDS011;17218;54.070;10.012;2022-08-11T15:48:01;2.80;;;1.00;;
30420;SDS011;17218;54.070;10.012;2022-08-11T15:50:36;1.63;;;0.90;;
30420;SDS011;17218;54.070;10.012;2022-08-11T15:53:07;0.93;;;0.80;;
30420;SDS011;17218;54.070;10.012;2022-08-11T15:55:43;5.28;;;1.25;;
30420;SDS011;17218;54.070;10.012;2022-08-11T15:58:14;1.92;;;1.00;;
30420;SDS011;17218;54.070;10.012;2022-08-11T16:01:01;2.17;;;1.00;;
30420;SDS011;17218;54.070;10.012;2022-08-11T16:03:48;1.75;;;0.98;;
30420;SDS011;17218;54.070;10.012;2022-08-11T16:06:41;1.13;;;0.85;;
30420;SDS011;17218;54.070;10.012;2022-08-11T16:09:17;2.13;;;1.40;;
30420;SDS011;17218;54.070;10.012;2022-08-11T16:11:47;1.75;;;0.88;;
30420;SDS011;17218;54.070;10.012;2022-08-11T16:14:15;3.65;;;1.20;;
30420;SDS011;17218;54.070;10.012;2022-08-11T16:17:02;2.85;;;1.00;;
30420;SDS011;17218;54.070;10.012;2022-08-11T16:19:31;2.45;;;1.00;;
30420;SDS011;17218;54.070;10.012;2022-08-11T16:22:02;3.25;;;1.00;;
30420;SDS011;17218;54.070;10.012;2022-08-11T16:24:32;3.00;;;1.05;;
30420;SDS011;17218;54.070;10.012;2022-08-11T16:27:00;3.65;;;1.20;;
30420;SDS011;17218;54.070;10.012;2022-08-11T16:29:32;4.63;;;1.05;;
30420;SDS011;17218;54.070;10.012;2022-08-11T16:32:02;1.10;;;1.00;;